Nearby METAR Reports

 

KMLP - Mullan Pass, Idaho, USA
Distance from station: NE 41mi, 66km
Updated: Sat, 26-Sep-2020 10:53pm PDT
Light rain, Overcast
Light rain, Overcast
 Wind from NW
Wind: NW 7 mph , 11 km/h
Temperature: 37°F , 3°C
Wind Chill: 32°F , 0°C
Dew Point: 34°F , 1°C
Humidity: 87%
Barometer: 30.15 inHg , 1021 hPa
Summary: Light Rain
Clouds: Overcast
Visibility: 10 miles , 16 km
Cloud details: Mostly Cloudy 1500 ft
Mostly Cloudy 2000 ft
Overcast 2800 ft
2020/09/27 05:53 KMLP 270553Z AUTO 32006KT 10SM -RA BKN015 BKN020 OVC028 03/01 A3015 RMK AO2 SLP175 P0000 60001 T00280006 10039 20028 51009 $
KPUW - Pullman/Moscow, Washington, USA
Distance from station: SW 42mi, 68km
Updated: Sat, 26-Sep-2020 10:53pm PDT
Overcast
Overcast
 Wind from calm
Wind: Calm
Temperature: 50°F , 10°C
Dew Point: 45°F , 7°C
Humidity: 82%
Barometer: 30.19 inHg , 1022.4 hPa
Clouds: Overcast
Visibility: 10 miles , 16 km
Cloud details: Mostly Cloudy 5000 ft
Overcast 6000 ft
2020/09/27 05:53 KPUW 270553Z AUTO 00000KT 10SM BKN050 OVC060 10/07 A3019 RMK AO2 SLP226 60004 T01000072 10161 20094 53014 TSNO
 
KCOE - Coeur D'alene, Idaho, USA
Distance from station: NNW 49mi, 79km
Updated: Sat, 26-Sep-2020 10:56pm PDT
Mostly Cloudy
Mostly Cloudy
 Wind from calm
Wind: Calm
Temperature: 50°F , 10°C
Dew Point: 41°F , 5°C
Humidity: 71%
Barometer: 30.15 inHg , 1021 hPa
Clouds: Mostly Cloudy
Visibility: 10 miles , 16 km
Cloud details: Mostly Cloudy 8500 ft
2020/09/27 05:56 KCOE 270556Z AUTO 00000KT 10SM BKN085 10/05 A3015 RMK AO2 SLP230 T01000050 10144 20100 51020
KSFF - Spokane/Felts, Washington, USA
Distance from station: NW 59mi, 94km
Updated: Sat, 26-Sep-2020 10:53pm PDT
Few Clouds
Few Clouds
 Wind from calm
Wind: Calm
Temperature: 48°F , 9°C
Dew Point: 46°F , 8°C
Humidity: 94%
Barometer: 30.15 inHg , 1021 hPa
Clouds: Few Clouds
Visibility: 10 miles , 16 km
Cloud details: Few Clouds 7500 ft
2020/09/27 05:53 KSFF 270553Z AUTO 00000KT 10SM FEW075 09/08 A3015 RMK AO2 SLP207 60003 T00940078 10172 20094 51013
 
KLWS - Lewiston, Idaho, USA
Distance from station: SSW 59mi, 96km
Updated: Sat, 26-Sep-2020 10:56pm PDT
Overcast
Overcast
 Wind from W
Wind: W 3 mph , 6 km/h
Temperature: 61°F , 16°C
Dew Point: 43°F , 6°C
Humidity: 52%
Barometer: 30.17 inHg , 1021.7 hPa
Clouds: Overcast
Visibility: 10 miles , 16 km
Cloud details: Mostly Cloudy 6500 ft
Overcast 7500 ft
2020/09/27 05:56 KLWS 270556Z AUTO 28003KT 10SM BKN065 OVC075 16/06 A3017 RMK AO2 RAB20E40 SLP214 P0000 60000 T01560061 10206 20156 53018
KGEG - Spokane/Metro, Washington, USA
Distance from station: WNW 64mi, 103km
Updated: Sat, 26-Sep-2020 10:53pm PDT
Few Clouds
Few Clouds
 Wind from S
Wind: S 3 mph , 6 km/h
Temperature: 50°F , 10°C
Dew Point: 39°F , 4°C
Humidity: 67%
Barometer: 30.15 inHg , 1021 hPa
Clouds: Few Clouds
Visibility: 10 miles , 16 km
Cloud details: Few Clouds 14000 ft
Few Clouds 25000 ft
2020/09/27 05:53 KGEG 270553Z 19003KT 10SM FEW140 FEW250 10/04 A3015 RMK AO2 SLP211 T01000044 10161 20100 53012
 
KSKA - Fairchild Afb, Washington, USA
Distance from station: WNW 68mi, 110km
Updated: Sat, 26-Sep-2020 9:58pm PDT
Partly Cloudy
Partly Cloudy
 Wind from WSW
Wind: WSW 6 mph , 9 km/h
Temperature: 48°F , 9°C
Wind Chill: 45°F , 7°C
Dew Point: 43°F , 6°C
Humidity: 82%
Barometer: 30.13 inHg , 1020.3 hPa
Clouds: Partly Cloudy
Visibility: 10 miles , 16 km
Cloud details: Partly Cloudy 13000 ft
2020/09/27 04:58 KSKA 270458Z 25005KT 10SM SCT130 09/06 A3013 RMK AO2A SLP210 T00910062 $